createdAt,value
2018-08-09T00:02:53.695Z,0.63
2018-08-09T00:05:58.626Z,0.63
2018-08-09T00:09:03.201Z,0.60
2018-08-09T00:12:07.473Z,0.90
2018-08-09T00:15:12.429Z,0.80
2018-08-09T00:18:16.380Z,0.97
2018-08-09T00:21:20.335Z,1.40
2018-08-09T00:24:24.636Z,0.90
2018-08-09T00:27:28.889Z,1.00
2018-08-09T00:30:32.812Z,1.10
2018-08-09T00:33:36.795Z,0.90
2018-08-09T00:36:41.267Z,1.43
2018-08-09T00:39:45.209Z,1.00
2018-08-09T00:42:49.399Z,0.93
2018-08-09T00:45:53.354Z,0.90
2018-08-09T00:48:57.651Z,0.80
2018-08-09T00:52:01.658Z,1.10
2018-08-09T00:55:05.610Z,1.10
2018-08-09T00:58:15.770Z,1.13
2018-08-09T01:01:20.047Z,0.70
2018-08-09T01:04:23.994Z,0.50
2018-08-09T01:07:28.257Z,1.03
2018-08-09T01:10:32.541Z,0.93
2018-08-09T01:13:36.486Z,1.20
2018-08-09T01:16:40.418Z,1.13
2018-08-09T01:19:44.980Z,0.83
2018-08-09T01:25:52.054Z,0.93
2018-08-09T01:28:56.021Z,0.70
2018-08-09T01:31:59.956Z,1.10
2018-08-09T01:35:03.889Z,0.80
2018-08-09T01:38:08.851Z,0.93
2018-08-09T01:41:13.768Z,0.60
2018-08-09T01:44:18.021Z,0.60
2018-08-09T01:47:21.940Z,0.50
2018-08-09T01:50:26.192Z,1.10
2018-08-09T01:53:30.480Z,0.80
2018-08-09T01:56:34.361Z,0.80
2018-08-09T01:59:38.261Z,1.20
2018-08-09T02:02:42.729Z,1.40
2018-08-09T02:05:47.292Z,0.80
2018-08-09T02:08:51.265Z,0.67
2018-08-09T02:11:55.180Z,0.83
2018-08-09T02:14:59.091Z,1.03
2018-08-09T02:18:03.009Z,1.30
2018-08-09T02:21:08.632Z,0.70
2018-08-09T02:24:12.916Z,0.90
2018-08-09T02:27:18.076Z,1.00
2018-08-09T02:30:22.018Z,1.17
2018-08-09T02:33:25.927Z,1.00
2018-08-09T02:36:30.180Z,0.70
2018-08-09T02:39:34.132Z,0.80
2018-08-09T02:42:38.034Z,1.20
2018-08-09T02:45:42.089Z,1.00
2018-08-09T02:48:46.457Z,1.03
2018-08-09T02:51:50.685Z,0.83
2018-08-09T02:54:55.126Z,0.80
2018-08-09T02:58:00.606Z,0.83
2018-08-09T03:01:04.764Z,0.83
2018-08-09T03:04:08.707Z,0.80
2018-08-09T03:07:12.608Z,0.70
2018-08-09T03:10:16.509Z,0.60
2018-08-09T03:13:20.728Z,0.87
2018-08-09T03:16:26.180Z,0.80
2018-08-09T03:19:30.445Z,0.80
2018-08-09T03:22:35.684Z,0.80
2018-08-09T03:25:39.932Z,0.70
2018-08-09T03:28:43.845Z,0.80
2018-08-09T03:31:47.758Z,0.70
2018-08-09T03:34:51.664Z,1.07
2018-08-09T03:37:55.564Z,1.00
2018-08-09T03:40:59.733Z,0.97
2018-08-09T03:44:03.661Z,0.87
2018-08-09T03:47:07.713Z,0.80
2018-08-09T03:50:11.968Z,0.60
2018-08-09T03:53:16.186Z,0.83
2018-08-09T03:56:20.481Z,1.07
2018-08-09T03:59:24.468Z,1.20
2018-08-09T04:02:28.807Z,1.20
2018-08-09T04:05:32.697Z,1.40
2018-08-09T04:08:38.545Z,0.67
2018-08-09T04:11:43.500Z,0.80
2018-08-09T04:14:47.697Z,1.00
2018-08-09T04:17:51.969Z,0.73
2018-08-09T04:20:56.044Z,0.87
2018-08-09T04:24:00.296Z,0.80
2018-08-09T04:27:04.208Z,0.90
2018-08-09T04:30:08.520Z,1.00
2018-08-09T04:33:12.408Z,0.93
2018-08-09T04:36:16.392Z,0.80
2018-08-09T04:39:20.327Z,0.83
2018-08-09T04:42:24.809Z,0.70
2018-08-09T04:45:28.782Z,1.07
2018-08-09T04:48:33.260Z,0.70
2018-08-09T04:51:37.207Z,0.83
2018-08-09T04:54:41.119Z,0.97
2018-08-09T04:57:45.056Z,0.67
2018-08-09T05:00:48.940Z,0.83
2018-08-09T05:03:52.884Z,0.77
2018-08-09T05:06:56.818Z,0.90
2018-08-09T05:10:06.494Z,1.43
2018-08-09T05:13:10.747Z,0.80
2018-08-09T05:16:15.034Z,0.87
2018-08-09T05:19:19.284Z,0.80
2018-08-09T05:22:23.522Z,0.97
2018-08-09T05:25:28.053Z,1.10
2018-08-09T05:28:33.261Z,1.07
2018-08-09T05:31:38.123Z,0.77
2018-08-09T05:34:42.008Z,0.90
2018-08-09T05:37:46.183Z,0.70
2018-08-09T05:40:51.445Z,1.00
2018-08-09T05:43:55.588Z,1.20
2018-08-09T05:47:00.319Z,0.50
2018-08-09T05:50:04.671Z,0.97
2018-08-09T05:53:08.606Z,0.77
2018-08-09T05:56:12.706Z,0.73
2018-08-09T05:59:16.949Z,0.67
2018-08-09T06:02:21.184Z,1.20
2018-08-09T06:05:25.479Z,0.83
2018-08-09T06:08:30.625Z,0.70
2018-08-09T06:11:34.578Z,0.60
2018-08-09T06:14:38.683Z,0.97
2018-08-09T06:17:43.135Z,0.70
2018-08-09T06:20:47.028Z,0.97
2018-08-09T06:23:51.480Z,1.10
2018-08-09T06:26:55.374Z,1.00
2018-08-09T06:29:59.545Z,0.60
2018-08-09T06:33:03.445Z,0.63
2018-08-09T06:36:07.936Z,0.43
2018-08-09T06:39:11.884Z,0.67
2018-08-09T06:42:15.800Z,0.73
2018-08-09T06:45:19.747Z,0.70
2018-08-09T06:48:24.222Z,0.80
2018-08-09T06:51:28.401Z,1.00
2018-08-09T06:54:33.656Z,0.80
2018-08-09T06:57:37.919Z,0.90
2018-08-09T07:00:42.829Z,0.60
2018-08-09T07:03:47.149Z,0.80
2018-08-09T07:06:51.267Z,0.63
2018-08-09T07:09:55.361Z,0.67
2018-08-09T07:12:59.713Z,0.60
2018-08-09T07:16:05.239Z,0.70
2018-08-09T07:19:09.453Z,0.90
2018-08-09T07:22:13.389Z,0.57
2018-08-09T07:25:18.340Z,0.57
2018-08-09T07:28:23.609Z,0.90
2018-08-09T07:31:27.517Z,0.70
2018-08-09T07:34:31.421Z,0.97
2018-08-09T07:37:36.399Z,0.70
2018-08-09T07:40:40.621Z,1.00
2018-08-09T07:43:44.881Z,0.87
2018-08-09T07:46:50.053Z,0.83
2018-08-09T07:49:54.300Z,0.80
2018-08-09T07:52:58.229Z,0.60
2018-08-09T07:56:02.111Z,0.70
2018-08-09T07:59:07.558Z,0.50
2018-08-09T08:02:11.490Z,0.73
2018-08-09T08:05:15.593Z,0.90
2018-08-09T08:08:19.518Z,0.90
2018-08-09T08:11:23.732Z,1.43
2018-08-09T08:14:27.664Z,0.70
2018-08-09T08:17:32.875Z,0.80
2018-08-09T08:20:37.337Z,1.10
2018-08-09T08:23:41.461Z,0.60
2018-08-09T08:26:45.679Z,0.70
2018-08-09T08:29:50.040Z,1.13
2018-08-09T08:32:53.976Z,0.90
2018-08-09T08:35:58.196Z,0.97
2018-08-09T08:39:02.235Z,0.80
2018-08-09T08:42:07.175Z,0.80
2018-08-09T08:45:13.339Z,0.80
2018-08-09T08:48:18.261Z,0.77
2018-08-09T08:51:23.414Z,1.00
2018-08-09T08:54:27.328Z,1.10
2018-08-09T08:57:31.256Z,0.73
2018-08-09T09:00:35.145Z,1.00
2018-08-09T09:03:39.304Z,0.97
2018-08-09T09:06:43.252Z,0.70
2018-08-09T09:09:47.473Z,1.07
2018-08-09T09:12:51.628Z,1.03
2018-08-09T09:15:55.548Z,0.90
2018-08-09T09:19:00.920Z,0.90
2018-08-09T09:22:05.108Z,1.03
2018-08-09T09:25:10.343Z,1.03
2018-08-09T09:28:15.269Z,0.70
2018-08-09T09:31:19.521Z,0.73
2018-08-09T09:34:23.410Z,1.43
2018-08-09T09:37:27.367Z,0.90
2018-08-09T09:40:31.721Z,0.90
2018-08-09T09:43:35.663Z,1.10
2018-08-09T09:46:39.566Z,1.50
2018-08-09T09:49:44.093Z,1.10
2018-08-09T09:52:48.172Z,0.80
2018-08-09T09:55:52.467Z,1.17
2018-08-09T09:58:56.919Z,1.23
2018-08-09T10:02:01.893Z,1.20
2018-08-09T10:05:05.960Z,1.03
2018-08-09T10:08:09.922Z,1.30
2018-08-09T10:11:14.213Z,1.20
2018-08-09T10:14:18.129Z,1.10
2018-08-09T10:17:23.066Z,1.33
2018-08-09T10:20:26.976Z,1.50
2018-08-09T10:23:30.991Z,1.07
2018-08-09T10:26:35.032Z,1.20
2018-08-09T10:29:38.961Z,1.90
2018-08-09T10:32:42.872Z,1.10
2018-08-09T10:35:47.117Z,1.30
2018-08-09T10:38:52.101Z,1.30
2018-08-09T10:41:56.000Z,1.13
2018-08-09T10:45:00.923Z,1.40
2018-08-09T10:48:05.181Z,1.40
2018-08-09T10:51:09.116Z,1.13
2018-08-09T10:54:13.244Z,1.20
2018-08-09T10:57:17.136Z,1.20
2018-08-09T11:00:21.058Z,1.23
2018-08-09T11:03:25.287Z,1.23
2018-08-09T11:06:29.507Z,1.17
2018-08-09T11:09:33.565Z,1.43
2018-08-09T11:12:37.813Z,1.53
2018-08-09T11:15:42.009Z,1.53
2018-08-09T11:18:46.088Z,0.90
2018-08-09T11:21:50.000Z,1.27
2018-08-09T11:24:54.284Z,1.33
2018-08-09T11:27:58.272Z,1.20
2018-08-09T11:31:03.244Z,1.80
2018-08-09T11:34:07.460Z,1.60
2018-08-09T11:37:11.897Z,1.30
2018-08-09T11:40:15.916Z,1.50
2018-08-09T11:43:19.863Z,1.30
2018-08-09T11:46:23.796Z,1.10
2018-08-09T11:49:28.784Z,1.10
2018-08-09T11:52:32.912Z,1.33
2018-08-09T11:55:36.809Z,1.50
2018-08-09T11:58:40.994Z,1.93
2018-08-09T12:01:46.266Z,1.60
2018-08-09T12:04:50.292Z,1.63
2018-08-09T12:07:54.169Z,1.67
2018-08-09T12:10:58.105Z,1.53
2018-08-09T12:14:02.026Z,1.30
2018-08-09T12:17:06.269Z,1.27
2018-08-09T12:20:10.196Z,1.50
2018-08-09T12:23:14.380Z,1.53
2018-08-09T12:26:18.348Z,1.77
2018-08-09T12:29:22.692Z,1.77
2018-08-09T12:32:26.921Z,1.90
2018-08-09T12:35:30.848Z,1.40
2018-08-09T12:38:34.828Z,2.03
2018-08-09T12:41:39.012Z,1.60
2018-08-09T12:44:42.897Z,1.67
2018-08-09T12:47:46.845Z,1.47
2018-08-09T12:50:50.800Z,1.93
2018-08-09T12:53:54.916Z,2.17
2018-08-09T12:56:58.924Z,1.53
2018-08-09T13:00:03.154Z,1.90
2018-08-09T13:03:07.221Z,1.67
2018-08-09T13:06:12.376Z,1.63
2018-08-09T13:09:16.343Z,2.20
2018-08-09T13:12:20.614Z,1.70
2018-08-09T13:15:24.722Z,2.17
2018-08-09T13:18:28.701Z,1.63
2018-08-09T13:21:34.203Z,1.80
2018-08-09T13:24:38.476Z,1.80
2018-08-09T13:27:42.419Z,2.03
2018-08-09T13:30:46.333Z,1.83
2018-08-09T13:33:52.085Z,2.07
2018-08-09T13:36:55.967Z,2.27
2018-08-09T13:40:00.396Z,1.90
2018-08-09T13:43:04.331Z,1.90
2018-08-09T13:46:08.280Z,1.90
2018-08-09T13:49:12.224Z,1.90
2018-08-09T13:52:17.169Z,1.63
2018-08-09T13:55:21.361Z,1.60
2018-08-09T13:58:25.566Z,1.87
2018-08-09T14:01:29.903Z,1.60
2018-08-09T14:04:34.861Z,1.93
2018-08-09T14:07:39.983Z,2.17
2018-08-09T14:10:43.921Z,2.13
2018-08-09T14:13:48.421Z,1.80
2018-08-09T14:16:52.351Z,2.20
2018-08-09T14:19:56.470Z,2.07
2018-08-09T14:23:01.124Z,2.07
2018-08-09T14:26:05.389Z,1.53
2018-08-09T14:29:09.714Z,2.03
2018-08-09T14:32:13.670Z,1.77
2018-08-09T14:35:17.673Z,1.50
2018-08-09T14:38:21.920Z,1.70
2018-08-09T14:41:25.862Z,1.67
2018-08-09T14:44:30.116Z,1.80
2018-08-09T14:47:34.092Z,2.30
2018-08-09T14:50:38.344Z,1.47
2018-08-09T14:53:42.310Z,1.67
2018-08-09T14:56:46.408Z,2.10
2018-08-09T14:59:51.736Z,1.97
2018-08-09T15:02:56.434Z,2.07
2018-08-09T15:06:00.507Z,1.43
2018-08-09T15:09:07.615Z,2.13
2018-08-09T15:12:11.534Z,1.70
2018-08-09T15:15:15.784Z,1.67
2018-08-09T15:18:19.961Z,2.20
2018-08-09T15:21:26.368Z,1.83
2018-08-09T15:24:30.542Z,2.00
2018-08-09T15:27:34.551Z,2.50
2018-08-09T15:30:38.702Z,1.80
2018-08-09T15:33:42.734Z,1.30
2018-08-09T15:36:47.721Z,1.60
2018-08-09T15:39:52.041Z,1.20
2018-08-09T15:42:56.804Z,1.73
2018-08-09T15:46:01.048Z,1.80
2018-08-09T15:49:05.268Z,1.60
2018-08-09T15:52:09.287Z,1.73
2018-08-09T15:55:14.262Z,1.67
2018-08-09T15:58:18.382Z,1.80
2018-08-09T16:01:22.658Z,1.90
2018-08-09T16:04:26.874Z,1.37
2018-08-09T16:07:31.020Z,1.97
2018-08-09T16:10:34.961Z,1.50
2018-08-09T16:13:39.007Z,1.33
2018-08-09T16:16:43.002Z,1.13
2018-08-09T16:19:47.196Z,1.23
2018-08-09T16:22:51.402Z,1.63
2018-08-09T16:26:08.473Z,2.23
2018-08-09T16:29:12.701Z,1.90
2018-08-09T16:32:16.929Z,1.43
2018-08-09T16:35:20.852Z,1.00
2018-08-09T16:38:25.235Z,1.23
2018-08-09T16:41:29.147Z,0.93
2018-08-09T16:44:33.089Z,1.30
2018-08-09T16:47:38.065Z,1.20
2018-08-09T16:50:42.173Z,1.77
2018-08-09T16:53:46.638Z,1.30
2018-08-09T16:56:50.550Z,1.33
2018-08-09T16:59:54.542Z,1.23
2018-08-09T17:02:59.046Z,1.70
2018-08-09T17:06:03.312Z,1.40
2018-08-09T17:09:10.203Z,1.10
2018-08-09T17:12:14.492Z,1.07
2018-08-09T17:15:24.273Z,1.23
2018-08-09T17:18:29.383Z,1.70
2018-08-09T17:21:33.311Z,1.30
2018-08-09T17:24:37.460Z,0.90
2018-08-09T17:27:42.723Z,1.40
2018-08-09T17:30:46.716Z,1.57
2018-08-09T17:33:51.105Z,1.53
2018-08-09T17:36:55.232Z,0.70
2018-08-09T17:40:02.628Z,0.93
2018-08-09T17:43:07.460Z,0.80
2018-08-09T17:46:13.221Z,0.60
2018-08-09T17:49:17.109Z,0.63
2018-08-09T17:52:22.069Z,0.70
2018-08-09T17:55:26.245Z,0.70
2018-08-09T17:58:32.165Z,0.80
2018-08-09T18:01:36.423Z,0.57
2018-08-09T18:04:40.600Z,0.93
2018-08-09T18:07:44.696Z,0.40
2018-08-09T18:10:48.653Z,1.37
2018-08-09T18:13:52.675Z,0.87
2018-08-09T18:16:58.951Z,1.03
2018-08-09T18:20:03.931Z,1.27
2018-08-09T18:23:12.103Z,1.10
2018-08-09T18:26:16.132Z,0.80
2018-08-09T18:29:20.061Z,0.63
2018-08-09T18:32:24.590Z,0.87
2018-08-09T18:35:28.775Z,0.87
2018-08-09T18:38:33.077Z,0.90
2018-08-09T18:41:37.267Z,0.90
2018-08-09T18:44:41.232Z,1.00
2018-08-09T18:47:45.674Z,1.13
2018-08-09T18:50:49.725Z,0.80
2018-08-09T18:53:54.020Z,0.90
2018-08-09T18:56:58.389Z,0.80
2018-08-09T19:00:02.527Z,1.27
2018-08-09T19:03:06.689Z,0.87
2018-08-09T19:06:10.701Z,1.20
2018-08-09T19:09:14.759Z,1.00
2018-08-09T19:12:18.918Z,0.87
2018-08-09T19:15:22.849Z,1.20
2018-08-09T19:18:26.836Z,1.37
2018-08-09T19:21:31.912Z,0.60
2018-08-09T19:24:35.872Z,1.37
2018-08-09T19:27:39.899Z,1.10
2018-08-09T19:30:44.242Z,1.30
2018-08-09T19:33:48.189Z,1.60
2018-08-09T19:36:53.183Z,1.13
2018-08-09T19:39:57.256Z,0.80
2018-08-09T19:43:01.170Z,1.17
2018-08-09T19:46:05.966Z,1.30
2018-08-09T19:49:09.909Z,1.70
2018-08-09T19:52:24.283Z,1.30
2018-08-09T19:56:32.767Z,1.40
2018-08-09T19:59:37.238Z,1.53
2018-08-09T20:02:41.599Z,1.00
2018-08-09T20:05:45.583Z,0.97
2018-08-09T20:08:49.905Z,1.50
2018-08-09T20:11:54.471Z,1.03
2018-08-09T20:15:00.014Z,0.97
2018-08-09T20:18:03.949Z,1.03
2018-08-09T20:21:07.906Z,0.97
2018-08-09T20:24:11.866Z,1.37
2018-08-09T20:27:15.800Z,0.80
2018-08-09T20:30:20.501Z,1.33
2018-08-09T20:33:24.420Z,1.63
2018-08-09T20:36:28.447Z,1.70
2018-08-09T20:39:32.347Z,1.33
2018-08-09T20:42:37.516Z,1.20
2018-08-09T20:45:41.441Z,1.20
2018-08-09T20:48:45.634Z,1.33
2018-08-09T20:51:49.549Z,1.50
2018-08-09T20:54:53.739Z,1.33
2018-08-09T20:57:57.884Z,0.70
2018-08-09T21:01:01.921Z,1.90
2018-08-09T21:04:06.778Z,1.57
2018-08-09T21:07:11.066Z,1.00
2018-08-09T21:10:15.125Z,1.57
2018-08-09T21:13:19.075Z,1.30
2018-08-09T21:16:23.066Z,1.73
2018-08-09T21:19:27.372Z,1.20
2018-08-09T21:22:31.329Z,0.97
2018-08-09T21:25:35.294Z,0.97
2018-08-09T21:28:39.262Z,1.40
2018-08-09T21:31:43.262Z,1.30
2018-08-09T21:34:47.208Z,1.70
2018-08-09T21:37:51.170Z,1.10
2018-08-09T21:40:58.169Z,1.37
2018-08-09T21:44:03.211Z,1.37
2018-08-09T21:47:07.398Z,1.40
2018-08-09T21:50:13.925Z,1.53
2018-08-09T21:53:17.893Z,1.17
2018-08-09T21:56:22.832Z,1.20
2018-08-09T21:59:26.762Z,1.13
2018-08-09T22:02:30.757Z,1.40
2018-08-09T22:05:40.411Z,1.00
2018-08-09T22:08:50.917Z,1.40
2018-08-09T22:12:00.123Z,1.40
2018-08-09T22:15:09.935Z,1.30
2018-08-09T22:18:19.481Z,1.50
2018-08-09T22:21:29.260Z,2.20
2018-08-09T22:24:33.160Z,1.70
2018-08-09T22:27:37.570Z,1.57
2018-08-09T22:30:41.855Z,2.00
2018-08-09T22:33:46.216Z,1.53
2018-08-09T22:36:50.166Z,1.10
2018-08-09T22:39:54.679Z,0.80
2018-08-09T22:42:58.613Z,1.70
2018-08-09T22:46:03.962Z,1.33
2018-08-09T22:49:08.237Z,1.43
2018-08-09T22:52:12.219Z,1.57
2018-08-09T22:55:16.494Z,1.00
2018-08-09T22:58:20.781Z,1.70
2018-08-09T23:01:24.727Z,1.47
2018-08-09T23:04:28.708Z,1.40
2018-08-09T23:07:32.852Z,1.20
2018-08-09T23:10:37.169Z,1.27
2018-08-09T23:13:42.477Z,1.60
2018-08-09T23:16:46.746Z,1.20
2018-08-09T23:19:50.697Z,1.13
2018-08-09T23:22:54.890Z,0.97
2018-08-09T23:25:58.857Z,0.80
2018-08-09T23:29:03.046Z,1.40
2018-08-09T23:32:07.217Z,1.60
2018-08-09T23:35:11.629Z,1.20
2018-08-09T23:38:15.573Z,1.10
2018-08-09T23:41:20.510Z,1.00
2018-08-09T23:44:24.694Z,0.93
2018-08-09T23:47:28.956Z,0.60
2018-08-09T23:50:33.450Z,0.77
2018-08-09T23:53:38.251Z,0.80
2018-08-09T23:56:42.224Z,0.80
2018-08-09T23:59:46.562Z,1.03
